Terminal Aerodrome Forecast
Issued by NWS Charleston, WV

Current Version | Previous Version | Graphics & Text | Print | Product List | Glossary On
Versions: 1 2 3 4 5 6 7 8 9 10 11 12 13 14 15 16 17 18 19 20 21 22 23 24 25 26 27
000
FTUS41 KRLX 301300 AAB
TAFBKW
TAF AMD
KBKW 301344Z 3014/3112 30013G20KT 3SM -SN BR BKN015
      TEMPO 3014/3015 1SM -SN BKN009
     FM301600 31014G21KT 5SM -SN BR BKN025
     FM310200 32008G13KT P6SM SCT015=

USA.gov is the U.S. government's official web portal to all federal, state and local government web resources and services.